createdAt,value
2018-07-14T00:00:36.457Z,17.40
2018-07-14T00:01:36.484Z,17.22
2018-07-14T00:02:36.504Z,17.22
2018-07-14T00:03:36.535Z,17.15
2018-07-14T00:04:36.572Z,17.10
2018-07-14T00:05:36.580Z,17.18
2018-07-14T00:06:36.607Z,17.07
2018-07-14T00:07:36.633Z,17.15
2018-07-14T00:08:36.658Z,17.21
2018-07-14T00:09:36.681Z,17.14
2018-07-14T00:10:36.710Z,17.22
2018-07-14T00:11:36.730Z,17.21
2018-07-14T00:12:36.763Z,17.25
2018-07-14T00:13:36.784Z,17.21
2018-07-14T00:14:36.803Z,17.27
2018-07-14T00:15:36.829Z,17.20
2018-07-14T00:16:36.856Z,17.27
2018-07-14T00:17:36.884Z,17.24
2018-07-14T00:18:36.908Z,17.21
2018-07-14T00:19:36.930Z,17.24
2018-07-14T00:20:36.953Z,17.21
2018-07-14T00:21:36.981Z,17.17
2018-07-14T00:22:37.004Z,17.24
2018-07-14T00:23:37.036Z,17.24
2018-07-14T00:24:37.061Z,17.14
2018-07-14T00:25:37.076Z,17.20
2018-07-14T00:26:37.105Z,17.17
2018-07-14T00:27:37.132Z,17.20
2018-07-14T00:28:37.161Z,17.24
2018-07-14T00:29:37.178Z,17.20
2018-07-14T00:30:37.205Z,17.20
2018-07-14T00:31:37.233Z,17.14
2018-07-14T00:32:37.256Z,17.10
2018-07-14T00:33:37.280Z,17.14
2018-07-14T00:34:37.309Z,17.02
2018-07-14T00:35:37.328Z,17.12
2018-07-14T00:36:37.352Z,17.05
2018-07-14T00:37:37.374Z,17.07
2018-07-14T00:38:37.404Z,17.05
2018-07-14T00:39:37.438Z,17.06
2018-07-14T00:40:37.450Z,17.05
2018-07-14T00:41:37.523Z,17.09
2018-07-14T00:42:37.505Z,17.00
2018-07-14T00:43:37.530Z,17.14
2018-07-14T00:44:37.551Z,17.18
2018-07-14T00:45:37.572Z,17.03
2018-07-14T00:46:37.599Z,17.12
2018-07-14T00:47:37.622Z,17.12
2018-07-14T00:48:37.650Z,17.10
2018-07-14T00:49:37.673Z,17.03
2018-07-14T00:50:37.706Z,16.92
2018-07-14T00:51:37.724Z,17.05
2018-07-14T00:52:37.745Z,17.06
2018-07-14T00:53:37.775Z,16.88
2018-07-14T00:54:37.791Z,16.98
2018-07-14T00:55:37.827Z,16.98
2018-07-14T00:56:37.846Z,16.84
2018-07-14T00:57:37.869Z,16.91
2018-07-14T00:58:37.895Z,16.92
2018-07-14T00:59:37.924Z,16.90
2018-07-14T01:00:37.945Z,16.87
2018-07-14T01:01:37.974Z,16.96
2018-07-14T01:02:37.996Z,16.85
2018-07-14T01:03:38.024Z,16.95
2018-07-14T01:04:38.045Z,16.95
2018-07-14T01:05:38.072Z,16.82
2018-07-14T01:06:38.099Z,16.98
2018-07-14T01:07:38.177Z,16.84
2018-07-14T01:08:38.146Z,16.95
2018-07-14T01:09:38.162Z,16.91
2018-07-14T01:10:38.191Z,16.96
2018-07-14T01:11:38.213Z,16.92
2018-07-14T01:12:38.244Z,17.00
2018-07-14T01:13:38.269Z,16.91
2018-07-14T01:14:38.298Z,16.85
2018-07-14T01:15:38.315Z,16.90
2018-07-14T01:16:38.342Z,16.90
2018-07-14T01:17:38.420Z,16.85
2018-07-14T01:18:38.393Z,16.82
2018-07-14T01:19:38.415Z,16.72
2018-07-14T01:20:38.437Z,16.75
2018-07-14T01:21:38.466Z,16.66
2018-07-14T01:22:38.492Z,16.70
2018-07-14T01:23:38.512Z,16.78
2018-07-14T01:24:38.535Z,16.81
2018-07-14T01:25:38.562Z,16.73
2018-07-14T01:26:38.589Z,16.78
2018-07-14T01:27:38.614Z,16.80
2018-07-14T01:28:38.634Z,16.78
2018-07-14T01:29:38.660Z,16.78
2018-07-14T01:30:38.687Z,16.70
2018-07-14T01:31:38.713Z,16.78
2018-07-14T01:32:38.744Z,16.82
2018-07-14T01:33:38.750Z,16.85
2018-07-14T01:34:38.780Z,16.70
2018-07-14T01:35:38.800Z,16.81
2018-07-14T01:36:38.832Z,16.78
2018-07-14T01:37:38.854Z,16.77
2018-07-14T01:38:38.882Z,16.80
2018-07-14T01:39:38.902Z,16.78
2018-07-14T01:40:38.988Z,16.85
2018-07-14T01:41:38.961Z,16.95
2018-07-14T01:42:38.977Z,16.82
2018-07-14T01:43:39.002Z,16.88
2018-07-14T01:44:39.029Z,16.82
2018-07-14T01:45:39.046Z,16.81
2018-07-14T01:46:39.076Z,16.84
2018-07-14T01:47:39.099Z,16.91
2018-07-14T01:48:39.130Z,16.87
2018-07-14T01:49:39.154Z,16.85
2018-07-14T01:50:39.175Z,16.96
2018-07-14T01:51:39.198Z,17.00
2018-07-14T01:52:39.222Z,16.82
2018-07-14T01:53:39.245Z,16.92
2018-07-14T01:54:39.273Z,16.95
2018-07-14T01:55:39.296Z,16.98
2018-07-14T01:56:39.324Z,16.90
2018-07-14T01:57:39.344Z,16.96
2018-07-14T01:58:39.368Z,16.91
2018-07-14T01:59:39.394Z,16.88
2018-07-14T02:00:39.421Z,16.73
2018-07-14T02:01:39.440Z,16.77
2018-07-14T02:02:39.470Z,16.73
2018-07-14T02:03:39.489Z,16.70
2018-07-14T02:04:39.518Z,16.67
2018-07-14T02:05:39.548Z,16.65
2018-07-14T02:06:39.572Z,16.69
2018-07-14T02:07:39.586Z,16.75
2018-07-14T02:08:39.616Z,16.75
2018-07-14T02:09:39.636Z,16.87
2018-07-14T02:10:39.668Z,16.81
2018-07-14T02:11:39.687Z,16.95
2018-07-14T02:12:39.714Z,16.90
2018-07-14T02:13:39.734Z,17.14
2018-07-14T02:14:39.762Z,17.02
2018-07-14T02:15:39.784Z,17.07
2018-07-14T02:16:39.812Z,17.07
2018-07-14T02:17:39.832Z,17.18
2018-07-14T02:18:39.862Z,17.20
2018-07-14T02:19:39.884Z,17.24
2018-07-14T02:20:39.914Z,17.24
2018-07-14T02:21:39.934Z,17.24
2018-07-14T02:22:39.961Z,17.18
2018-07-14T02:23:39.982Z,17.17
2018-07-14T02:24:40.009Z,17.22
2018-07-14T02:25:40.036Z,17.17
2018-07-14T02:26:40.058Z,17.15
2018-07-14T02:27:40.082Z,17.17
2018-07-14T02:28:40.106Z,17.15
2018-07-14T02:29:40.128Z,17.18
2018-07-14T02:30:40.158Z,17.17
2018-07-14T02:31:40.185Z,17.12
2018-07-14T02:32:40.209Z,17.18
2018-07-14T02:33:40.235Z,17.22
2018-07-14T02:34:40.248Z,17.15
2018-07-14T02:35:40.278Z,17.24
2018-07-14T02:36:40.303Z,17.18
2018-07-14T02:37:40.337Z,17.21
2018-07-14T02:38:40.359Z,17.22
2018-07-14T02:39:40.400Z,17.27
2018-07-14T02:40:40.400Z,17.25
2018-07-14T02:41:40.428Z,17.32
2018-07-14T02:42:40.450Z,17.22
2018-07-14T02:43:40.478Z,17.25
2018-07-14T02:44:40.501Z,17.21
2018-07-14T02:45:40.531Z,17.24
2018-07-14T02:46:40.549Z,17.24
2018-07-14T02:47:40.574Z,17.28
2018-07-14T02:48:40.604Z,17.21
2018-07-14T02:49:40.624Z,17.20
2018-07-14T02:50:40.650Z,17.22
2018-07-14T02:51:40.672Z,17.22
2018-07-14T02:52:40.696Z,17.21
2018-07-14T02:53:40.728Z,17.28
2018-07-14T02:54:40.750Z,17.28
2018-07-14T02:55:40.774Z,17.24
2018-07-14T02:56:40.814Z,17.30
2018-07-14T02:57:40.826Z,17.35
2018-07-14T02:58:40.844Z,17.25
2018-07-14T02:59:40.917Z,17.25
2018-07-14T03:00:40.896Z,17.22
2018-07-14T03:01:40.922Z,17.22
2018-07-14T03:02:40.950Z,17.27
2018-07-14T03:03:40.974Z,17.27
2018-07-14T03:04:40.997Z,17.25
2018-07-14T03:05:41.020Z,17.20
2018-07-14T03:06:41.046Z,17.30
2018-07-14T03:07:41.068Z,17.35
2018-07-14T03:08:41.093Z,17.25
2018-07-14T03:09:41.120Z,17.27
2018-07-14T03:10:41.145Z,17.18
2018-07-14T03:11:41.168Z,17.24
2018-07-14T03:12:41.195Z,17.24
2018-07-14T03:13:41.220Z,17.35
2018-07-14T03:14:41.241Z,17.32
2018-07-14T03:15:41.266Z,17.32
2018-07-14T03:16:41.291Z,17.30
2018-07-14T03:17:41.312Z,17.38
2018-07-14T03:18:41.354Z,17.38
2018-07-14T03:19:41.367Z,17.36
2018-07-14T03:20:41.388Z,17.39
2018-07-14T03:21:41.412Z,17.38
2018-07-14T03:22:41.439Z,17.45
2018-07-14T03:23:41.460Z,17.51
2018-07-14T03:24:41.492Z,17.54
2018-07-14T03:25:41.512Z,17.58
2018-07-14T03:26:41.540Z,17.62
2018-07-14T03:27:41.575Z,17.68
2018-07-14T03:28:41.582Z,17.60
2018-07-14T03:29:41.611Z,17.65
2018-07-14T03:30:41.636Z,17.57
2018-07-14T03:31:41.666Z,17.68
2018-07-14T03:32:41.692Z,17.55
2018-07-14T03:33:41.707Z,17.65
2018-07-14T03:34:41.739Z,17.63
2018-07-14T03:35:41.758Z,17.53
2018-07-14T03:36:41.817Z,17.49
2018-07-14T03:37:41.811Z,17.49
2018-07-14T03:38:41.836Z,17.49
2018-07-14T03:39:41.863Z,17.45
2018-07-14T03:40:41.888Z,17.42
2018-07-14T03:41:41.916Z,17.43
2018-07-14T03:42:41.939Z,17.46
2018-07-14T03:43:41.965Z,17.51
2018-07-14T03:44:41.983Z,17.47
2018-07-14T03:45:42.009Z,17.57
2018-07-14T03:46:42.035Z,17.55
2018-07-14T03:47:42.059Z,17.68
2018-07-14T03:48:42.085Z,17.53
2018-07-14T03:49:42.110Z,17.63
2018-07-14T03:50:42.130Z,17.68
2018-07-14T03:51:42.160Z,17.60
2018-07-14T03:52:42.181Z,17.60
2018-07-14T03:53:42.208Z,17.63
2018-07-14T03:54:42.228Z,17.57
2018-07-14T03:55:42.261Z,17.71
2018-07-14T03:56:42.310Z,17.70
2018-07-14T03:57:42.311Z,17.68
2018-07-14T03:58:42.333Z,17.66
2018-07-14T03:59:42.354Z,17.71
2018-07-14T04:00:42.380Z,17.74
2018-07-14T04:01:42.410Z,17.71
2018-07-14T04:02:42.430Z,17.84
2018-07-14T04:03:42.460Z,17.89
2018-07-14T04:04:42.486Z,17.92
2018-07-14T04:05:42.506Z,17.92
2018-07-14T04:06:42.535Z,17.91
2018-07-14T04:07:42.554Z,17.94
2018-07-14T04:08:42.582Z,17.94
2018-07-14T04:09:42.607Z,17.91
2018-07-14T04:10:42.624Z,17.80
2018-07-14T04:11:42.663Z,17.79
2018-07-14T04:12:42.688Z,17.80
2018-07-14T04:13:42.700Z,17.91
2018-07-14T04:14:42.829Z,17.87
2018-07-14T04:15:42.758Z,17.89
2018-07-14T04:16:42.776Z,17.81
2018-07-14T04:17:42.806Z,17.79
2018-07-14T04:18:42.828Z,17.83
2018-07-14T04:19:42.859Z,17.87
2018-07-14T04:20:42.884Z,17.95
2018-07-14T04:21:42.909Z,17.98
2018-07-14T04:22:42.928Z,17.95
2018-07-14T04:23:42.958Z,18.01
2018-07-14T04:24:42.982Z,18.01
2018-07-14T04:25:43.006Z,18.01
2018-07-14T04:26:43.024Z,17.95
2018-07-14T04:27:43.056Z,17.99
2018-07-14T04:28:43.080Z,17.92
2018-07-14T04:29:43.104Z,17.84
2018-07-14T04:30:43.130Z,17.84
2018-07-14T04:31:43.158Z,17.89
2018-07-14T04:32:43.182Z,17.95
2018-07-14T04:33:43.208Z,17.95
2018-07-14T04:34:43.228Z,17.92
2018-07-14T04:35:43.256Z,18.01
2018-07-14T04:36:43.283Z,17.99
2018-07-14T04:37:43.312Z,18.02
2018-07-14T04:38:43.331Z,18.07
2018-07-14T04:39:43.356Z,18.04
2018-07-14T04:40:43.382Z,18.09
2018-07-14T04:41:43.417Z,17.99
2018-07-14T04:42:43.429Z,18.04
2018-07-14T04:43:43.456Z,18.19
2018-07-14T04:44:43.480Z,18.16
2018-07-14T04:45:43.509Z,18.16
2018-07-14T04:46:43.528Z,18.20
2018-07-14T04:47:43.556Z,18.16
2018-07-14T04:48:43.584Z,18.09
2018-07-14T04:49:43.606Z,18.02
2018-07-14T04:50:43.636Z,17.99
2018-07-14T04:51:43.654Z,17.94
2018-07-14T04:52:43.680Z,17.98
2018-07-14T04:53:43.707Z,17.99
2018-07-14T04:54:43.731Z,17.98
2018-07-14T04:55:43.760Z,17.96
2018-07-14T04:56:43.786Z,18.17
2018-07-14T04:57:43.802Z,18.25
2018-07-14T04:58:43.835Z,18.36
2018-07-14T04:59:43.859Z,18.34
2018-07-14T05:00:43.878Z,18.38
2018-07-14T05:01:43.912Z,18.44
2018-07-14T05:02:43.928Z,18.36
2018-07-14T05:03:43.958Z,18.46
2018-07-14T05:04:43.982Z,18.57
2018-07-14T05:05:44.010Z,18.64
2018-07-14T05:06:44.032Z,18.56
2018-07-14T05:07:44.062Z,18.60
2018-07-14T05:08:44.091Z,18.62
2018-07-14T05:09:44.110Z,18.68
2018-07-14T05:10:44.139Z,18.68
2018-07-14T05:11:44.162Z,18.65
2018-07-14T05:12:44.182Z,18.65
2018-07-14T05:13:44.228Z,18.69
2018-07-14T05:14:44.232Z,18.62
2018-07-14T05:15:44.266Z,18.71
2018-07-14T05:16:44.290Z,18.68
2018-07-14T05:17:44.351Z,18.57
2018-07-14T05:18:44.338Z,18.53
2018-07-14T05:19:44.364Z,18.51
2018-07-14T05:20:44.388Z,18.54
2018-07-14T05:21:44.412Z,18.49
2018-07-14T05:22:44.444Z,18.53
2018-07-14T05:23:44.464Z,18.49
2018-07-14T05:24:44.487Z,18.44
2018-07-14T05:25:44.515Z,18.38
2018-07-14T05:26:44.537Z,18.34
2018-07-14T05:27:44.564Z,18.44
2018-07-14T05:28:44.594Z,18.42
2018-07-14T05:29:44.619Z,18.44
2018-07-14T05:30:44.646Z,18.47
2018-07-14T05:31:44.670Z,18.49
2018-07-14T05:32:44.694Z,18.47
2018-07-14T05:33:44.725Z,18.56
2018-07-14T05:34:44.745Z,18.51
2018-07-14T05:35:44.771Z,18.51
2018-07-14T05:36:44.797Z,18.54
2018-07-14T05:37:44.819Z,18.50
2018-07-14T05:38:44.847Z,18.64
2018-07-14T05:39:44.881Z,18.57
2018-07-14T05:40:44.903Z,18.56
2018-07-14T05:41:44.928Z,18.53
2018-07-14T05:42:44.947Z,18.57
2018-07-14T05:43:44.971Z,18.51
2018-07-14T05:44:44.997Z,18.60
2018-07-14T05:45:45.024Z,18.50
2018-07-14T05:46:45.052Z,18.56
2018-07-14T05:47:45.076Z,18.50
2018-07-14T05:48:45.109Z,18.66
2018-07-14T05:49:45.129Z,18.62
2018-07-14T05:50:45.147Z,18.69
2018-07-14T05:51:45.177Z,18.69
2018-07-14T05:52:45.205Z,18.68
2018-07-14T05:53:45.227Z,18.72
2018-07-14T05:54:45.253Z,18.71
2018-07-14T05:55:45.283Z,18.66
2018-07-14T05:56:45.309Z,18.71
2018-07-14T05:57:45.329Z,18.71
2018-07-14T05:58:45.358Z,18.69
2018-07-14T05:59:45.384Z,18.75
2018-07-14T06:00:45.403Z,18.64
2018-07-14T06:01:45.431Z,18.69
2018-07-14T06:02:45.461Z,18.75
2018-07-14T06:03:45.484Z,18.83
2018-07-14T06:04:45.507Z,18.83
2018-07-14T06:05:45.534Z,18.90
2018-07-14T06:06:45.559Z,18.94
2018-07-14T06:07:45.601Z,19.10
2018-07-14T06:08:45.611Z,19.17
2018-07-14T06:09:45.633Z,19.13
2018-07-14T06:10:45.662Z,19.30
2018-07-14T06:11:45.689Z,19.20
2018-07-14T06:12:45.713Z,19.20
2018-07-14T06:13:45.747Z,19.23
2018-07-14T06:14:45.768Z,19.20
2018-07-14T06:15:45.789Z,19.12
2018-07-14T06:16:45.817Z,18.90
2018-07-14T06:17:45.846Z,18.86
2018-07-14T06:18:45.869Z,18.86
2018-07-14T06:19:45.893Z,18.93
2018-07-14T06:20:45.917Z,18.97
2018-07-14T06:21:45.942Z,18.83
2018-07-14T06:22:45.962Z,18.93
2018-07-14T06:23:45.998Z,19.05
2018-07-14T06:24:46.021Z,19.01
2018-07-14T06:25:46.046Z,19.10
2018-07-14T06:26:46.070Z,19.09
2018-07-14T06:27:46.104Z,19.23
2018-07-14T06:28:46.127Z,19.16
2018-07-14T06:29:46.149Z,19.20
2018-07-14T06:30:46.180Z,19.32
2018-07-14T06:31:46.202Z,19.32
2018-07-14T06:32:46.224Z,19.43
2018-07-14T06:33:46.259Z,19.43
2018-07-14T06:34:46.281Z,19.46
2018-07-14T06:35:46.307Z,19.57
2018-07-14T06:36:46.331Z,19.53
2018-07-14T06:37:46.357Z,19.61
2018-07-14T06:38:46.384Z,19.58
2018-07-14T06:39:46.409Z,19.42
2018-07-14T06:40:46.435Z,19.58
2018-07-14T06:41:46.461Z,19.62
2018-07-14T06:42:46.485Z,19.65
2018-07-14T06:43:46.515Z,19.70
2018-07-14T06:44:46.595Z,19.70
2018-07-14T06:45:46.565Z,19.64
2018-07-14T06:46:46.591Z,19.70
2018-07-14T06:47:46.619Z,19.82
2018-07-14T06:48:46.643Z,19.76
2018-07-14T06:49:46.669Z,19.72
2018-07-14T06:50:46.697Z,19.82
2018-07-14T06:51:46.721Z,19.87
2018-07-14T06:52:46.745Z,19.83
2018-07-14T06:53:46.772Z,19.86
2018-07-14T06:54:46.799Z,19.67
2018-07-14T06:55:46.826Z,19.68
2018-07-14T06:56:46.852Z,19.57
2018-07-14T06:57:46.873Z,19.65
2018-07-14T06:58:46.903Z,19.70
2018-07-14T06:59:46.934Z,19.71
2018-07-14T07:00:46.953Z,19.82
2018-07-14T07:01:46.983Z,19.67
2018-07-14T07:02:47.009Z,19.78
2018-07-14T07:03:47.034Z,19.75
2018-07-14T07:04:47.061Z,19.78
2018-07-14T07:05:47.083Z,19.70
2018-07-14T07:06:47.113Z,19.67
2018-07-14T07:07:47.138Z,19.50
2018-07-14T07:08:47.166Z,19.47
2018-07-14T07:09:47.189Z,19.52
2018-07-14T07:10:47.213Z,19.62
2018-07-14T07:11:47.245Z,19.65
2018-07-14T07:12:47.273Z,19.64
2018-07-14T07:13:47.297Z,19.64
2018-07-14T07:14:47.321Z,19.70
2018-07-14T07:15:47.343Z,19.75
2018-07-14T07:16:47.373Z,19.82
2018-07-14T07:17:47.402Z,19.80
2018-07-14T07:18:47.427Z,19.76
2018-07-14T07:19:47.447Z,19.64
2018-07-14T07:20:47.483Z,19.80
2018-07-14T07:21:47.501Z,19.79
2018-07-14T07:22:47.530Z,19.64
2018-07-14T07:23:47.557Z,19.58
2018-07-14T07:24:47.588Z,19.57
2018-07-14T07:25:47.607Z,19.30
2018-07-14T07:26:47.636Z,19.10
2018-07-14T07:27:47.662Z,19.12
2018-07-14T07:28:47.787Z,19.15
2018-07-14T07:29:47.711Z,19.05
2018-07-14T07:30:47.739Z,19.09
2018-07-14T07:31:47.769Z,19.12
2018-07-14T07:32:47.789Z,19.20
2018-07-14T07:33:47.816Z,19.12
2018-07-14T07:34:47.839Z,19.02
2018-07-14T07:35:47.868Z,18.97
2018-07-14T07:36:47.897Z,19.12
2018-07-14T07:37:47.919Z,19.21
2018-07-14T07:38:47.956Z,19.21
2018-07-14T07:39:47.970Z,19.30
2018-07-14T07:40:48.000Z,19.32
2018-07-14T07:41:48.023Z,19.38
2018-07-14T07:42:48.047Z,19.47
2018-07-14T07:43:48.075Z,19.57
2018-07-14T07:44:48.104Z,19.58
2018-07-14T07:45:48.129Z,19.50
2018-07-14T07:46:48.153Z,19.58
2018-07-14T07:47:48.176Z,19.60
2018-07-14T07:48:48.202Z,19.57
2018-07-14T07:49:48.230Z,19.40
2018-07-14T07:50:48.259Z,19.46
2018-07-14T07:51:48.288Z,19.49
2018-07-14T07:52:48.320Z,19.65
2018-07-14T07:53:48.334Z,19.67
2018-07-14T07:54:48.357Z,19.80
2018-07-14T07:55:48.389Z,19.87
2018-07-14T07:56:48.420Z,19.76
2018-07-14T07:57:48.439Z,19.65
2018-07-14T07:58:48.468Z,19.58
2018-07-14T07:59:48.487Z,19.46
2018-07-14T08:00:48.514Z,19.52
2018-07-14T08:01:48.543Z,19.53
2018-07-14T08:02:48.568Z,19.57
2018-07-14T08:03:48.596Z,19.60
2018-07-14T08:04:48.622Z,19.67
2018-07-14T08:05:48.648Z,19.70
2018-07-14T08:06:48.674Z,19.90
2018-07-14T08:07:48.698Z,20.15
2018-07-14T08:08:48.730Z,20.13
2018-07-14T08:09:48.750Z,20.12
2018-07-14T08:10:48.776Z,20.08
2018-07-14T08:11:48.805Z,20.13
2018-07-14T08:12:48.831Z,20.05
2018-07-14T08:13:48.858Z,20.13
2018-07-14T08:14:48.882Z,19.92
2018-07-14T08:15:48.919Z,19.92
2018-07-14T08:16:48.934Z,19.86
2018-07-14T08:17:48.961Z,19.72
2018-07-14T08:18:48.985Z,19.92
2018-07-14T08:19:49.017Z,19.85
2018-07-14T08:20:49.049Z,19.87
2018-07-14T08:21:49.070Z,20.05
2018-07-14T08:22:49.148Z,20.07
2018-07-14T08:23:49.119Z,20.13
2018-07-14T08:24:49.144Z,20.12
2018-07-14T08:25:49.173Z,20.15
2018-07-14T08:26:49.199Z,20.13
2018-07-14T08:27:49.225Z,20.05
2018-07-14T08:28:49.252Z,19.85
2018-07-14T08:29:49.282Z,19.71
2018-07-14T08:30:49.307Z,19.65
2018-07-14T08:31:49.332Z,19.67
2018-07-14T08:32:49.355Z,19.71
2018-07-14T08:33:49.388Z,19.67
2018-07-14T08:34:49.411Z,19.67
2018-07-14T08:35:49.435Z,19.71
2018-07-14T08:36:49.466Z,19.79
2018-07-14T08:37:49.486Z,19.79
2018-07-14T08:38:49.558Z,19.87
2018-07-14T08:39:49.544Z,19.92
2018-07-14T08:40:49.568Z,19.97
2018-07-14T08:41:49.644Z,20.12
2018-07-14T08:42:49.617Z,20.12
2018-07-14T08:43:49.722Z,20.26
2018-07-14T08:44:49.675Z,20.20
2018-07-14T08:45:49.696Z,20.25
2018-07-14T08:46:49.727Z,20.44
2018-07-14T08:47:49.756Z,20.72
2018-07-14T08:48:49.782Z,20.50
2018-07-14T08:49:49.808Z,20.26
2018-07-14T08:50:49.833Z,20.27
2018-07-14T08:51:49.856Z,20.48
2018-07-14T08:52:49.887Z,20.69
2018-07-14T08:53:49.922Z,20.88
2018-07-14T08:54:49.938Z,20.82
2018-07-14T08:55:49.965Z,20.93
2018-07-14T08:56:49.994Z,20.94
2018-07-14T08:57:50.017Z,20.91
2018-07-14T08:58:50.052Z,21.06
2018-07-14T08:59:50.071Z,21.34
2018-07-14T09:00:50.101Z,21.46
2018-07-14T09:01:50.126Z,21.52
2018-07-14T09:02:50.150Z,21.42
2018-07-14T09:03:50.178Z,21.38
2018-07-14T09:04:50.220Z,21.53
2018-07-14T09:05:50.236Z,21.53
2018-07-14T09:06:50.262Z,21.63
2018-07-14T09:07:50.284Z,21.67
2018-07-14T09:08:50.314Z,21.82
2018-07-14T09:09:50.352Z,21.89
2018-07-14T09:10:50.369Z,21.89
2018-07-14T09:11:50.399Z,22.05
2018-07-14T09:12:50.426Z,22.05
2018-07-14T09:13:50.449Z,21.86
2018-07-14T09:14:50.479Z,21.70
2018-07-14T09:15:50.505Z,21.63
2018-07-14T09:16:50.533Z,21.61
2018-07-14T09:17:50.565Z,21.59
2018-07-14T09:18:50.590Z,21.77
2018-07-14T09:19:50.617Z,21.73
2018-07-14T09:20:50.646Z,21.81
2018-07-14T09:21:50.674Z,21.64
2018-07-14T09:22:50.705Z,21.71
2018-07-14T09:23:50.727Z,21.68
2018-07-14T09:24:50.754Z,21.70
2018-07-14T09:25:50.784Z,21.79
2018-07-14T09:26:50.813Z,21.93
2018-07-14T09:27:50.845Z,22.04
2018-07-14T09:28:50.869Z,22.17
2018-07-14T09:29:50.890Z,22.21
2018-07-14T09:30:50.925Z,22.30
2018-07-14T09:31:50.951Z,22.31
2018-07-14T09:32:50.974Z,22.17
2018-07-14T09:33:51.007Z,22.02
2018-07-14T09:34:51.037Z,22.01
2018-07-14T09:35:54.062Z,21.85
2018-07-14T09:36:51.089Z,21.66
2018-07-14T09:37:51.130Z,21.55
2018-07-14T09:38:51.139Z,21.37
2018-07-14T09:39:51.174Z,21.38
2018-07-14T09:40:51.193Z,21.56
2018-07-14T09:41:51.223Z,21.26
2018-07-14T09:42:51.256Z,21.26
2018-07-14T09:43:51.282Z,21.30
2018-07-14T09:44:51.308Z,21.27
2018-07-14T09:45:51.341Z,21.13
2018-07-14T09:46:51.365Z,21.31
2018-07-14T09:47:51.476Z,21.30
2018-07-14T09:48:51.416Z,21.19
2018-07-14T09:49:51.446Z,21.21
2018-07-14T09:50:51.473Z,21.18
2018-07-14T09:51:51.501Z,21.16
2018-07-14T09:52:51.528Z,21.36
2018-07-14T09:53:51.556Z,21.49
2018-07-14T09:54:51.580Z,21.61
2018-07-14T09:55:51.608Z,21.79
2018-07-14T09:56:51.643Z,22.09
2018-07-14T09:57:51.660Z,22.24
2018-07-14T09:58:51.694Z,22.30
2018-07-14T09:59:51.724Z,22.38
2018-07-14T10:00:51.754Z,22.31
2018-07-14T10:01:51.774Z,22.38
2018-07-14T10:02:51.799Z,22.15
2018-07-14T10:03:51.831Z,22.06
2018-07-14T10:04:51.860Z,22.04
2018-07-14T10:05:51.890Z,22.02
2018-07-14T10:06:51.913Z,21.98
2018-07-14T10:07:51.942Z,22.04
2018-07-14T10:08:51.966Z,22.04
2018-07-14T10:09:52.001Z,22.04
2018-07-14T10:10:52.024Z,21.66
2018-07-14T10:11:52.054Z,21.66
2018-07-14T10:12:52.092Z,21.74
2018-07-14T10:13:52.111Z,21.77
2018-07-14T10:14:52.186Z,21.71
2018-07-14T10:15:52.173Z,21.83
2018-07-14T10:16:52.194Z,21.83
2018-07-14T10:17:52.218Z,21.89
2018-07-14T10:18:52.242Z,21.85
2018-07-14T10:19:52.277Z,21.86
2018-07-14T10:20:52.302Z,21.79
2018-07-14T10:21:52.326Z,21.53
2018-07-14T10:22:52.350Z,21.37
2018-07-14T10:23:52.382Z,21.38
2018-07-14T10:24:52.407Z,21.37
2018-07-14T10:25:52.627Z,21.49
2018-07-14T10:26:52.466Z,21.43
2018-07-14T10:27:52.492Z,21.31
2018-07-14T10:28:52.565Z,21.36
2018-07-14T10:29:52.543Z,21.24
2018-07-14T10:30:52.574Z,21.21
2018-07-14T10:31:52.596Z,21.27
2018-07-14T10:32:52.628Z,21.36
2018-07-14T10:33:52.665Z,21.31
2018-07-14T10:34:52.682Z,21.22
2018-07-14T10:35:52.714Z,21.16
2018-07-14T10:36:52.738Z,21.15
2018-07-14T10:37:52.762Z,21.30
2018-07-14T10:38:52.860Z,21.26
2018-07-14T10:39:52.816Z,21.31
2018-07-14T10:40:52.854Z,21.26
2018-07-14T10:41:52.872Z,21.22
2018-07-14T10:42:52.902Z,21.31
2018-07-14T10:43:52.926Z,21.33
2018-07-14T10:44:52.955Z,21.28
2018-07-14T10:45:52.994Z,21.28
2018-07-14T10:46:53.058Z,21.15
2018-07-14T10:47:53.038Z,21.12
2018-07-14T10:48:53.065Z,21.37
2018-07-14T10:49:53.096Z,21.34
2018-07-14T10:50:53.122Z,21.49
2018-07-14T10:51:53.150Z,21.53
2018-07-14T10:52:53.174Z,21.64
2018-07-14T10:53:53.212Z,21.56
2018-07-14T10:54:53.224Z,21.46
2018-07-14T10:55:53.250Z,21.36
2018-07-14T10:56:53.283Z,21.31
2018-07-14T10:57:53.303Z,21.24
2018-07-14T10:58:53.328Z,21.31
2018-07-14T10:59:53.369Z,21.38
2018-07-14T11:00:53.386Z,21.56
2018-07-14T11:01:53.424Z,21.51
2018-07-14T11:02:53.444Z,21.46
2018-07-14T11:03:53.473Z,21.55
2018-07-14T11:04:53.499Z,21.58
2018-07-14T11:05:53.528Z,21.52
2018-07-14T11:06:53.548Z,21.34
2018-07-14T11:07:53.596Z,21.31
2018-07-14T11:08:54.819Z,21.31
2018-07-14T11:09:53.627Z,21.19
2018-07-14T11:10:53.660Z,21.22
2018-07-14T11:11:53.685Z,21.12
2018-07-14T11:12:53.710Z,21.05
2018-07-14T11:13:53.740Z,21.12
2018-07-14T11:14:53.769Z,20.97
2018-07-14T11:15:53.788Z,21.00
2018-07-14T11:16:53.824Z,21.03
2018-07-14T11:17:53.889Z,21.06
2018-07-14T11:18:53.872Z,21.15
2018-07-14T11:19:53.902Z,21.09
2018-07-14T11:20:53.931Z,21.18
2018-07-14T11:21:53.958Z,21.09
2018-07-14T11:22:53.983Z,21.06
2018-07-14T11:23:54.010Z,21.09
2018-07-14T11:24:54.043Z,21.12
2018-07-14T11:25:54.066Z,21.09
2018-07-14T11:26:54.089Z,21.08
2018-07-14T11:27:54.121Z,21.13
2018-07-14T11:28:54.148Z,21.08
2018-07-14T11:29:54.169Z,21.03
2018-07-14T11:30:54.200Z,21.09
2018-07-14T11:31:54.232Z,21.18
2018-07-14T11:32:54.250Z,21.22
2018-07-14T11:33:54.280Z,21.28
2018-07-14T11:34:54.304Z,21.46
2018-07-14T11:35:54.330Z,21.49
2018-07-14T11:36:54.358Z,21.30
2018-07-14T11:37:54.390Z,21.30
2018-07-14T11:38:54.414Z,21.40
2018-07-14T11:39:54.437Z,21.61
2018-07-14T11:40:54.471Z,21.70
2018-07-14T11:41:54.490Z,21.83
2018-07-14T11:42:54.521Z,22.08
2018-07-14T11:43:54.550Z,22.21
2018-07-14T11:44:54.580Z,22.41
2018-07-14T11:45:54.604Z,22.35
2018-07-14T11:46:54.632Z,22.38
2018-07-14T11:47:54.735Z,22.46
2018-07-14T11:48:54.682Z,22.59
2018-07-14T11:49:54.718Z,22.75
2018-07-14T11:50:54.732Z,23.00
2018-07-14T11:51:54.774Z,23.12
2018-07-14T11:52:54.801Z,23.19
2018-07-14T11:53:54.822Z,23.04
2018-07-14T11:54:54.849Z,23.11
2018-07-14T11:55:54.880Z,23.22
2018-07-14T11:56:54.909Z,23.54
2018-07-14T11:57:54.938Z,23.38
2018-07-14T11:58:54.961Z,23.32
2018-07-14T11:59:54.990Z,23.18
2018-07-14T12:00:55.016Z,23.12
2018-07-14T12:01:55.101Z,23.23
2018-07-14T12:02:55.075Z,23.56
2018-07-14T12:03:55.103Z,23.78
2018-07-14T12:04:55.128Z,24.00
2018-07-14T12:05:55.160Z,24.34
2018-07-14T12:06:55.184Z,24.53
2018-07-14T12:07:55.211Z,24.36
2018-07-14T12:08:55.247Z,24.26
2018-07-14T12:09:55.267Z,24.14
2018-07-14T12:10:55.297Z,23.62
2018-07-14T12:11:55.328Z,23.15
2018-07-14T12:12:55.358Z,23.18
2018-07-14T12:13:55.386Z,23.34
2018-07-14T12:14:55.414Z,23.34
2018-07-14T12:15:55.442Z,23.53
2018-07-14T12:16:55.476Z,23.59
2018-07-14T12:17:55.500Z,23.78
2018-07-14T12:18:55.530Z,23.96
2018-07-14T12:19:55.558Z,24.23
2018-07-14T12:20:55.594Z,24.42
2018-07-14T12:21:55.616Z,24.55
2018-07-14T12:22:55.648Z,24.99
2018-07-14T12:23:55.680Z,25.24
2018-07-14T12:24:55.702Z,25.30
2018-07-14T12:25:55.733Z,25.31
2018-07-14T12:26:55.770Z,25.53
2018-07-14T12:27:55.791Z,25.98
2018-07-14T12:28:55.822Z,25.61
2018-07-14T12:29:55.859Z,25.30
2018-07-14T12:30:55.886Z,25.59
2018-07-14T12:31:55.912Z,25.86
2018-07-14T12:32:55.941Z,26.31
2018-07-14T12:33:55.971Z,26.32
2018-07-14T12:34:56.001Z,26.32
2018-07-14T12:35:56.034Z,26.72
2018-07-14T12:36:56.059Z,27.06
2018-07-14T12:37:56.092Z,26.97
2018-07-14T12:38:56.122Z,27.18
2018-07-14T12:39:56.152Z,27.49
2018-07-14T12:40:56.179Z,27.40
2018-07-14T12:41:56.213Z,26.69
2018-07-14T12:42:56.248Z,26.54
2018-07-14T12:43:56.292Z,26.34
2018-07-14T12:44:56.320Z,26.28
2018-07-14T12:45:56.338Z,26.34
2018-07-14T12:46:56.370Z,25.90
2018-07-14T12:47:56.394Z,25.94
2018-07-14T12:48:56.428Z,25.90
2018-07-14T12:49:56.456Z,25.64
2018-07-14T12:50:56.490Z,25.07
2018-07-14T12:51:56.518Z,24.93
2018-07-14T12:52:56.548Z,24.45